Terminal Aerodrome Forecast
Issued by NWS Amarillo, TX

Home | Current Version | Previous Version | Text Only | Print | Product List | Glossary On
Versions: 1 2 3 4 5 6 7 8 9 10 11 12 13 14 15 16 17 18 19 20 21 22
000
FTUS44 KAMA 011100
TAFAMA
TAF
KAMA 011137Z 0112/0212 35014KT P6SM SCT020
      TEMPO 0112/0113 BKN025
     FM011300 35018G27KT P6SM BKN025
     FM011800 35022G31KT P6SM SCT025 SCT050
     FM020000 02010KT P6SM SCT050=

USA.gov is the U.S. government's official web portal to all federal, state and local government web resources and services.